Terminal Aerodrome Forecast
Issued by NWS

Home | Current Version | Previous Version | Text Only | Print | Product List | Glossary On
Versions: 1 2 3 4 5 6 7 8 9 10 11
000
FTUS45 KFGZ 270900 AAA
TAFPGA
TAF AMD
KPGA 270917Z 2709/2806 28006KT P6SM SCT040 BKN050
     FM271700 VRB05KT P6SM SCT070=

USA.gov is the U.S. government's official web portal to all federal, state and local government web resources and services.